createdAt,value
2018-01-13T00:00:48.356Z,25.83
2018-01-13T00:03:16.837Z,25.80
2018-01-13T00:05:44.344Z,24.25
2018-01-13T00:08:11.886Z,22.35
2018-01-13T00:10:39.582Z,24.80
2018-01-13T00:13:07.308Z,24.80
2018-01-13T00:15:35.516Z,25.15
2018-01-13T00:18:02.849Z,22.05
2018-01-13T00:20:30.175Z,25.15
2018-01-13T00:22:57.503Z,26.25
2018-01-13T00:25:25.419Z,25.70
2018-01-13T00:30:27.052Z,24.70
2018-01-13T00:32:54.277Z,27.10
2018-01-13T00:35:21.526Z,27.08
2018-01-13T00:37:48.749Z,24.05
2018-01-13T00:40:16.036Z,26.15
2018-01-13T00:42:43.270Z,23.08
2018-01-13T00:45:10.560Z,27.98
2018-01-13T00:47:38.589Z,26.02
2018-01-13T00:50:06.153Z,25.92
2018-01-13T00:52:34.426Z,24.30
2018-01-13T00:57:35.446Z,23.87
2018-01-13T01:00:02.696Z,26.80
2018-01-13T01:02:29.928Z,26.50
2018-01-13T01:04:57.229Z,23.95
2018-01-13T01:07:24.467Z,23.38
2018-01-13T01:09:51.715Z,26.33
2018-01-13T01:12:18.947Z,23.90
2018-01-13T01:14:46.169Z,27.80
2018-01-13T01:17:13.414Z,24.15
2018-01-13T01:19:40.662Z,26.20
2018-01-13T01:22:07.902Z,24.20
2018-01-13T01:24:35.177Z,25.92
2018-01-13T01:27:02.421Z,25.50
2018-01-13T01:29:29.716Z,22.62
2018-01-13T01:31:56.941Z,22.80
2018-01-13T01:34:24.179Z,24.30
2018-01-13T01:36:51.428Z,24.08
2018-01-13T01:39:18.650Z,22.15
2018-01-13T01:41:45.890Z,22.77
2018-01-13T01:44:13.133Z,24.25
2018-01-13T01:46:40.369Z,24.23
2018-01-13T01:49:07.602Z,25.67
2018-01-13T01:51:34.845Z,22.62
2018-01-13T01:54:02.969Z,24.25
2018-01-13T01:56:31.106Z,23.92
2018-01-13T01:58:59.234Z,24.52
2018-01-13T02:01:26.469Z,23.48
2018-01-13T02:03:53.698Z,22.80
2018-01-13T02:06:20.930Z,23.10
2018-01-13T02:08:49.733Z,25.05
2018-01-13T02:11:17.133Z,22.10
2018-01-13T02:13:44.354Z,23.40
2018-01-13T02:16:11.575Z,22.87
2018-01-13T02:18:38.817Z,23.35
2018-01-13T02:21:06.041Z,21.87
2018-01-13T02:23:33.284Z,27.30
2018-01-13T02:26:00.521Z,25.25
2018-01-13T02:28:27.757Z,27.75
2018-01-13T02:30:54.979Z,23.85
2018-01-13T02:33:22.209Z,22.45
2018-01-13T02:35:49.434Z,23.55
2018-01-13T02:38:16.675Z,22.85
2018-01-13T02:40:43.909Z,24.17
2018-01-13T02:45:44.833Z,22.60
2018-01-13T02:48:12.074Z,22.10
2018-01-13T02:50:40.197Z,22.00
2018-01-13T02:53:07.429Z,21.60
2018-01-13T02:55:35.448Z,20.05
2018-01-13T02:58:02.718Z,22.42
2018-01-13T03:00:29.952Z,21.00
2018-01-13T03:02:57.190Z,21.40
2018-01-13T03:05:24.424Z,20.20
2018-01-13T03:07:51.662Z,20.77
2018-01-13T03:10:18.894Z,20.45
2018-01-13T03:12:46.138Z,21.80
2018-01-13T03:15:13.376Z,21.73
2018-01-13T03:17:40.605Z,20.50
2018-01-13T03:20:07.834Z,21.87
2018-01-13T03:22:35.077Z,25.08
2018-01-13T03:25:02.310Z,24.17
2018-01-13T03:27:29.540Z,24.05
2018-01-13T03:29:56.783Z,26.90
2018-01-13T03:32:24.014Z,26.40
2018-01-13T03:34:51.250Z,25.88
2018-01-13T03:37:18.478Z,23.08
2018-01-13T03:39:45.739Z,26.05
2018-01-13T03:42:12.970Z,23.65
2018-01-13T03:44:40.205Z,26.17
2018-01-13T03:47:07.456Z,26.10
2018-01-13T03:49:34.688Z,24.25
2018-01-13T03:52:01.982Z,22.42
2018-01-13T03:54:29.213Z,23.35
2018-01-13T03:56:56.438Z,21.98
2018-01-13T03:59:23.681Z,22.90
2018-01-13T04:01:50.901Z,23.50
2018-01-13T04:04:18.144Z,25.12
2018-01-13T04:06:45.371Z,22.83
2018-01-13T04:09:12.605Z,24.70
2018-01-13T04:11:39.841Z,23.65
2018-01-13T04:14:07.096Z,24.48
2018-01-13T04:16:34.331Z,24.77
2018-01-13T04:19:01.555Z,22.25
2018-01-13T04:21:28.782Z,26.60
2018-01-13T04:23:56.021Z,24.35
2018-01-13T04:26:23.596Z,26.75
2018-01-13T04:28:50.848Z,24.30
2018-01-13T04:31:18.087Z,25.15
2018-01-13T04:33:45.335Z,26.85
2018-01-13T04:36:12.668Z,26.40
2018-01-13T04:38:39.901Z,26.75
2018-01-13T04:41:07.140Z,25.95
2018-01-13T04:43:34.369Z,24.70
2018-01-13T04:46:01.605Z,28.73
2018-01-13T04:48:28.842Z,28.55
2018-01-13T04:50:56.085Z,25.95
2018-01-13T04:53:23.306Z,26.70
2018-01-13T04:55:50.542Z,26.33
2018-01-13T04:58:17.773Z,26.00
2018-01-13T05:00:44.997Z,22.65
2018-01-13T05:03:12.228Z,26.15
2018-01-13T05:05:39.498Z,25.00
2018-01-13T05:08:06.687Z,28.38
2018-01-13T05:10:33.923Z,26.65
2018-01-13T05:13:01.189Z,24.05
2018-01-13T05:15:28.437Z,24.37
2018-01-13T05:17:55.665Z,25.05
2018-01-13T05:20:22.995Z,25.05
2018-01-13T05:22:50.214Z,24.55
2018-01-13T05:25:17.456Z,26.45
2018-01-13T05:27:44.686Z,24.40
2018-01-13T05:30:11.926Z,26.40
2018-01-13T05:32:39.191Z,25.40
2018-01-13T05:35:06.416Z,23.12
2018-01-13T05:37:33.642Z,26.27
2018-01-13T05:40:00.881Z,24.30
2018-01-13T05:42:28.114Z,22.92
2018-01-13T05:44:55.460Z,22.42
2018-01-13T05:47:22.910Z,24.05
2018-01-13T05:49:50.253Z,27.67
2018-01-13T05:52:17.478Z,22.77
2018-01-13T05:54:44.710Z,24.20
2018-01-13T05:57:11.946Z,23.90
2018-01-13T05:59:39.863Z,23.60
2018-01-13T06:02:07.099Z,25.35
2018-01-13T06:04:34.317Z,26.23
2018-01-13T06:07:01.548Z,24.02
2018-01-13T06:09:28.787Z,23.05
2018-01-13T06:11:56.140Z,24.55
2018-01-13T06:14:23.364Z,22.23
2018-01-13T06:16:50.593Z,26.52
2018-01-13T06:19:17.826Z,24.40
2018-01-13T06:21:45.068Z,22.20
2018-01-13T06:24:19.498Z,23.17
2018-01-13T06:26:51.235Z,24.23
2018-01-13T06:29:25.404Z,23.02
2018-01-13T06:32:00.299Z,22.80
2018-01-13T06:34:35.138Z,22.58
2018-01-13T06:37:05.328Z,22.00
2018-01-13T06:39:36.061Z,22.55
2018-01-13T06:42:06.715Z,22.58
2018-01-13T06:44:36.647Z,21.25
2018-01-13T06:47:05.643Z,22.52
2018-01-13T06:49:34.416Z,22.90
2018-01-13T06:52:02.696Z,22.98
2018-01-13T06:54:31.294Z,21.95
2018-01-13T06:56:58.659Z,21.33
2018-01-13T06:59:25.908Z,22.00
2018-01-13T07:01:53.133Z,21.87
2018-01-13T07:04:20.352Z,24.25
2018-01-13T07:06:47.594Z,25.48
2018-01-13T07:09:14.800Z,23.23
2018-01-13T07:11:42.041Z,21.58
2018-01-13T07:14:09.264Z,21.98
2018-01-13T07:16:36.534Z,23.38
2018-01-13T07:19:03.804Z,25.45
2018-01-13T07:21:31.024Z,23.58
2018-01-13T07:23:58.288Z,28.73
2018-01-13T07:26:26.336Z,27.42
2018-01-13T07:28:53.595Z,23.25
2018-01-13T07:31:20.796Z,19.52
2018-01-13T07:33:48.687Z,21.67
2018-01-13T07:36:15.912Z,19.80
2018-01-13T07:38:43.226Z,20.45
2018-01-13T07:41:10.450Z,19.73
2018-01-13T07:43:37.668Z,20.12
2018-01-13T07:46:04.905Z,19.98
2018-01-13T07:48:32.129Z,22.80
2018-01-13T07:50:59.356Z,20.90
2018-01-13T07:53:26.583Z,20.62
2018-01-13T07:55:55.491Z,21.35
2018-01-13T07:58:22.724Z,19.77
2018-01-13T08:00:49.941Z,20.73
2018-01-13T08:03:17.172Z,19.87
2018-01-13T08:05:44.385Z,19.67
2018-01-13T08:08:11.764Z,19.08
2018-01-13T08:10:38.980Z,19.00
2018-01-13T08:13:06.221Z,19.27
2018-01-13T08:15:33.429Z,23.50
2018-01-13T08:18:00.724Z,19.60
2018-01-13T08:20:27.940Z,20.37
2018-01-13T08:22:55.176Z,21.48
2018-01-13T08:25:22.412Z,21.75
2018-01-13T08:27:49.637Z,20.52
2018-01-13T08:30:17.016Z,21.17
2018-01-13T08:32:44.253Z,21.05
2018-01-13T08:35:11.483Z,19.12
2018-01-13T08:37:38.701Z,21.20
2018-01-13T08:40:05.933Z,19.42
2018-01-13T08:42:33.156Z,21.25
2018-01-13T08:45:00.384Z,20.92
2018-01-13T08:47:27.608Z,20.55
2018-01-13T08:49:54.837Z,20.50
2018-01-13T08:52:22.084Z,19.45
2018-01-13T08:54:50.448Z,20.52
2018-01-13T08:57:17.679Z,20.62
2018-01-13T08:59:44.917Z,19.33
2018-01-13T09:02:12.932Z,19.23
2018-01-13T09:04:41.071Z,19.00
2018-01-13T09:07:08.292Z,18.77
2018-01-13T09:09:35.515Z,18.87
2018-01-13T09:12:02.744Z,20.05
2018-01-13T09:14:29.972Z,16.98
2018-01-13T09:16:57.282Z,18.67
2018-01-13T09:19:24.508Z,18.02
2018-01-13T09:21:51.723Z,19.40
2018-01-13T09:24:18.997Z,19.65
2018-01-13T09:26:46.219Z,20.58
2018-01-13T09:29:13.442Z,19.20
2018-01-13T09:31:40.667Z,19.55
2018-01-13T09:34:07.897Z,19.67
2018-01-13T09:36:35.186Z,37.85
2018-01-13T09:39:02.685Z,21.48
2018-01-13T09:41:30.687Z,20.00
2018-01-13T09:43:57.907Z,20.95
2018-01-13T09:46:25.529Z,19.62
2018-01-13T09:48:52.806Z,21.60
2018-01-13T09:51:20.037Z,19.40
2018-01-13T09:53:47.252Z,21.67
2018-01-13T09:56:14.485Z,18.92
2018-01-13T09:58:42.092Z,19.40
2018-01-13T10:01:10.141Z,20.90
2018-01-13T10:03:38.185Z,19.65
2018-01-13T10:06:05.433Z,21.40
2018-01-13T10:08:32.692Z,20.20
2018-01-13T10:10:59.925Z,18.40
2018-01-13T10:13:27.135Z,19.70
2018-01-13T10:15:55.120Z,19.62
2018-01-13T10:18:22.345Z,20.55
2018-01-13T10:20:49.572Z,20.50
2018-01-13T10:23:16.799Z,21.92
2018-01-13T10:25:44.039Z,20.20
2018-01-13T10:28:11.718Z,20.83
2018-01-13T10:30:40.089Z,21.62
2018-01-13T10:33:08.046Z,20.08
2018-01-13T10:35:35.503Z,22.20
2018-01-13T10:38:03.420Z,22.67
2018-01-13T10:40:30.654Z,23.15
2018-01-13T10:42:59.130Z,22.40
2018-01-13T10:45:27.139Z,19.90
2018-01-13T10:47:54.402Z,21.45
2018-01-13T10:50:21.637Z,21.45
2018-01-13T10:52:48.907Z,20.35
2018-01-13T10:55:16.804Z,21.50
2018-01-13T10:57:44.077Z,23.23
2018-01-13T11:00:11.464Z,23.00
2018-01-13T11:02:38.696Z,21.87
2018-01-13T11:05:06.855Z,21.12
2018-01-13T11:07:34.097Z,20.37
2018-01-13T11:10:01.316Z,23.42
2018-01-13T11:12:28.540Z,24.25
2018-01-13T11:14:55.768Z,22.58
2018-01-13T11:17:23.016Z,22.77
2018-01-13T11:19:51.179Z,23.05
2018-01-13T11:22:18.417Z,22.40
2018-01-13T11:24:45.996Z,24.70
2018-01-13T11:27:13.984Z,21.65
2018-01-13T11:29:41.286Z,26.35
2018-01-13T11:32:08.505Z,22.17
2018-01-13T11:34:35.732Z,23.80
2018-01-13T11:37:03.373Z,21.95
2018-01-13T11:39:31.921Z,22.55
2018-01-13T11:42:00.077Z,24.05
2018-01-13T11:44:28.990Z,22.58
2018-01-13T11:46:56.222Z,23.45
2018-01-13T11:49:23.436Z,24.85
2018-01-13T11:51:51.439Z,22.20
2018-01-13T11:54:18.664Z,21.98
2018-01-13T11:56:45.905Z,22.98
2018-01-13T11:59:13.128Z,21.60
2018-01-13T12:01:40.351Z,23.33
2018-01-13T12:04:07.571Z,23.12
2018-01-13T12:06:34.812Z,21.35
2018-01-13T12:09:02.123Z,22.10
2018-01-13T12:11:29.344Z,21.45
2018-01-13T12:13:56.646Z,21.30
2018-01-13T12:16:23.872Z,20.15
2018-01-13T12:18:51.100Z,21.05
2018-01-13T12:21:18.320Z,22.67
2018-01-13T12:23:45.547Z,22.27
2018-01-13T12:26:12.768Z,22.25
2018-01-13T12:28:39.999Z,19.90
2018-01-13T12:31:07.242Z,19.40
2018-01-13T12:33:34.469Z,19.90
2018-01-13T12:36:01.701Z,19.48
2018-01-13T12:38:28.950Z,20.75
2018-01-13T12:40:56.172Z,20.55
2018-01-13T12:43:23.409Z,21.90
2018-01-13T12:45:50.670Z,20.23
2018-01-13T12:48:17.904Z,19.25
2018-01-13T12:50:45.115Z,16.87
2018-01-13T12:53:12.432Z,18.70
2018-01-13T12:55:39.656Z,18.92
2018-01-13T12:58:06.879Z,19.62
2018-01-13T13:00:34.100Z,19.80
2018-01-13T13:03:01.337Z,19.90
2018-01-13T13:05:28.562Z,18.00
2018-01-13T13:07:55.786Z,18.33
2018-01-13T13:10:23.072Z,18.60
2018-01-13T13:12:50.306Z,19.12
2018-01-13T13:15:17.536Z,20.58
2018-01-13T13:17:44.852Z,18.17
2018-01-13T13:20:12.120Z,19.05
2018-01-13T13:22:40.368Z,18.85
2018-01-13T13:25:07.594Z,19.92
2018-01-13T13:27:34.840Z,18.87
2018-01-13T13:30:02.114Z,19.67
2018-01-13T13:32:30.103Z,19.10
2018-01-13T13:34:57.337Z,20.02
2018-01-13T13:37:24.556Z,23.80
2018-01-13T13:39:51.798Z,23.38
2018-01-13T13:42:19.032Z,24.70
2018-01-13T13:44:46.302Z,20.30
2018-01-13T13:47:13.637Z,20.70
2018-01-13T13:49:40.900Z,22.65
2018-01-13T13:52:08.170Z,19.85
2018-01-13T13:54:35.406Z,19.00
2018-01-13T13:57:02.705Z,18.55
2018-01-13T13:59:30.091Z,20.15
2018-01-13T14:01:57.353Z,18.60
2018-01-13T14:04:24.584Z,17.87
2018-01-13T14:06:52.636Z,18.92
2018-01-13T14:09:19.873Z,17.92
2018-01-13T14:11:47.112Z,18.02
2018-01-13T14:14:14.332Z,19.40
2018-01-13T14:16:41.548Z,17.45
2018-01-13T14:19:08.779Z,19.15
2018-01-13T14:21:36.027Z,17.95
2018-01-13T14:24:03.244Z,18.23
2018-01-13T14:26:30.481Z,16.60
2018-01-13T14:28:57.699Z,20.60
2018-01-13T14:31:24.933Z,21.77
2018-01-13T14:33:52.156Z,18.87
2018-01-13T14:36:20.344Z,19.98
2018-01-13T14:38:49.416Z,17.80
2018-01-13T14:41:17.369Z,18.20
2018-01-13T14:43:45.488Z,19.15
2018-01-13T14:46:12.714Z,19.23
2018-01-13T14:48:40.722Z,19.67
2018-01-13T14:51:08.815Z,18.12
2018-01-13T14:53:37.340Z,20.20
2018-01-13T14:56:04.795Z,19.83
2018-01-13T14:58:32.028Z,17.95
2018-01-13T15:01:00.049Z,19.73
2018-01-13T15:03:27.268Z,20.62
2018-01-13T15:05:54.499Z,19.85
2018-01-13T15:08:22.453Z,19.48
2018-01-13T15:10:49.960Z,20.23
2018-01-13T15:13:17.189Z,21.08
2018-01-13T15:15:44.939Z,20.12
2018-01-13T15:18:12.629Z,19.90
2018-01-13T15:20:39.908Z,20.23
2018-01-13T15:23:07.661Z,21.42
2018-01-13T15:25:34.885Z,21.45
2018-01-13T15:28:02.096Z,20.52
2018-01-13T15:30:30.700Z,19.92
2018-01-13T15:32:58.722Z,19.45
2018-01-13T15:35:25.959Z,23.38
2018-01-13T15:37:53.192Z,20.30
2018-01-13T15:40:20.420Z,22.60
2018-01-13T15:42:47.678Z,22.20
2018-01-13T15:45:14.925Z,23.85
2018-01-13T15:47:42.155Z,20.65
2018-01-13T15:50:09.378Z,20.83
2018-01-13T15:52:37.559Z,21.02
2018-01-13T15:55:04.805Z,19.30
2018-01-13T15:57:32.017Z,19.60
2018-01-13T15:59:59.244Z,21.60
2018-01-13T16:02:26.484Z,20.83
2018-01-13T16:04:53.738Z,20.12
2018-01-13T16:07:20.964Z,21.50
2018-01-13T16:09:48.185Z,19.90
2018-01-13T16:12:15.420Z,22.65
2018-01-13T16:14:42.652Z,20.35
2018-01-13T16:17:09.874Z,21.08
2018-01-13T16:19:37.096Z,23.20
2018-01-13T16:22:04.430Z,22.20
2018-01-13T16:24:31.660Z,20.40
2018-01-13T16:26:59.297Z,22.15
2018-01-13T16:29:26.590Z,21.83
2018-01-13T16:31:53.970Z,19.10
2018-01-13T16:34:21.198Z,20.95
2018-01-13T16:36:50.049Z,22.00
2018-01-13T16:39:18.245Z,22.10
2018-01-13T16:41:46.375Z,20.55
2018-01-13T16:44:13.657Z,19.50
2018-01-13T16:46:41.333Z,19.40
2018-01-13T16:49:08.552Z,18.90
2018-01-13T16:51:35.809Z,19.30
2018-01-13T16:54:03.096Z,19.67
2018-01-13T16:56:30.360Z,17.65
2018-01-13T16:58:57.606Z,21.42
2018-01-13T17:01:25.599Z,19.45
2018-01-13T17:03:52.893Z,21.45
2018-01-13T17:06:20.137Z,19.08
2018-01-13T17:08:47.376Z,21.70
2018-01-13T17:11:14.633Z,17.30
2018-01-13T17:13:41.988Z,19.12
2018-01-13T17:16:09.228Z,19.05
2018-01-13T17:18:36.497Z,22.67
2018-01-13T17:21:04.667Z,19.80
2018-01-13T17:23:31.912Z,19.98
2018-01-13T17:25:59.186Z,22.35
2018-01-13T17:28:27.289Z,19.67
2018-01-13T17:30:54.521Z,17.95
2018-01-13T17:33:21.745Z,20.25
2018-01-13T17:35:48.990Z,19.15
2018-01-13T17:38:16.220Z,19.08
2018-01-13T17:40:43.445Z,20.23
2018-01-13T17:43:10.677Z,18.62
2018-01-13T17:45:37.912Z,20.12
2018-01-13T17:48:06.340Z,17.00
2018-01-13T17:50:34.547Z,22.05
2018-01-13T17:53:02.402Z,19.10
2018-01-13T17:55:30.947Z,21.05
2018-01-13T17:57:58.161Z,20.85
2018-01-13T18:00:25.408Z,20.10
2018-01-13T18:02:52.685Z,20.05
2018-01-13T18:05:19.970Z,21.67
2018-01-13T18:07:47.224Z,19.70
2018-01-13T18:10:14.499Z,21.60
2018-01-13T18:12:41.810Z,21.50
2018-01-13T18:15:10.512Z,22.77
2018-01-13T18:17:38.596Z,21.15
2018-01-13T18:20:05.895Z,22.20
2018-01-13T18:22:33.234Z,21.48
2018-01-13T18:25:00.486Z,20.70
2018-01-13T18:27:27.720Z,20.60
2018-01-13T18:29:55.082Z,19.33
2018-01-13T18:32:22.337Z,21.45
2018-01-13T18:34:49.589Z,18.60
2018-01-13T18:37:16.896Z,20.85
2018-01-13T18:39:44.116Z,19.70
2018-01-13T18:42:11.414Z,20.05
2018-01-13T18:44:38.651Z,20.80
2018-01-13T18:47:05.924Z,21.23
2018-01-13T18:49:33.232Z,21.80
2018-01-13T18:52:00.567Z,22.45
2018-01-13T18:54:28.719Z,21.08
2018-01-13T18:56:56.892Z,21.12
2018-01-13T18:59:24.173Z,20.33
2018-01-13T19:01:51.489Z,18.52
2018-01-13T19:04:18.710Z,22.73
2018-01-13T19:06:45.969Z,21.08
2018-01-13T19:09:13.188Z,21.70
2018-01-13T19:11:40.454Z,22.73
2018-01-13T19:14:07.785Z,24.90
2018-01-13T19:16:35.244Z,21.23
2018-01-13T19:19:02.526Z,22.17
2018-01-13T19:21:30.728Z,21.85
2018-01-13T19:23:58.109Z,20.25
2018-01-13T19:26:25.440Z,23.65
2018-01-13T19:28:52.670Z,21.20
2018-01-13T19:31:20.601Z,20.60
2018-01-13T19:33:48.530Z,22.90
2018-01-13T19:36:15.886Z,21.23
2018-01-13T19:38:43.195Z,21.77
2018-01-13T19:41:10.460Z,21.77
2018-01-13T19:43:37.714Z,21.65
2018-01-13T19:46:05.071Z,20.35
2018-01-13T19:48:32.352Z,21.20
2018-01-13T19:50:59.671Z,23.23
2018-01-13T19:53:26.988Z,22.77
2018-01-13T19:55:54.267Z,23.25
2018-01-13T19:58:21.550Z,22.73
2018-01-13T20:00:48.868Z,25.65
2018-01-13T20:03:16.200Z,24.65
2018-01-13T20:05:43.469Z,23.90
2018-01-13T20:08:10.747Z,22.73
2018-01-13T20:10:38.581Z,21.50
2018-01-13T20:13:06.657Z,24.85
2018-01-13T20:15:33.953Z,22.85
2018-01-13T20:18:01.242Z,23.80
2018-01-13T20:20:28.504Z,23.48
2018-01-13T20:22:55.773Z,24.08
2018-01-13T20:25:23.022Z,22.70
2018-01-13T20:27:50.878Z,23.05
2018-01-13T20:30:18.807Z,20.58
2018-01-13T20:32:46.349Z,24.12
2018-01-13T20:35:14.279Z,23.27
2018-01-13T20:37:43.072Z,22.52
2018-01-13T20:40:10.336Z,22.87
2018-01-13T20:42:37.650Z,22.77
2018-01-13T20:45:05.057Z,24.20
2018-01-13T20:47:32.368Z,21.52
2018-01-13T20:49:59.669Z,20.85
2018-01-13T20:52:26.970Z,22.58
2018-01-13T20:54:54.293Z,22.90
2018-01-13T20:57:21.616Z,21.87
2018-01-13T20:59:48.896Z,21.60
2018-01-13T21:02:16.171Z,21.55
2018-01-13T21:04:43.862Z,21.02
2018-01-13T21:07:11.170Z,22.98
2018-01-13T21:09:38.638Z,22.25
2018-01-13T21:12:05.911Z,20.80
2018-01-13T21:14:33.163Z,18.10
2018-01-13T21:17:01.253Z,21.60
2018-01-13T21:19:28.882Z,20.73
2018-01-13T21:21:56.165Z,18.45
2018-01-13T21:24:23.423Z,18.33
2018-01-13T21:26:51.596Z,17.42
2018-01-13T21:29:18.832Z,16.60
2018-01-13T21:31:46.486Z,17.05
2018-01-13T21:34:13.849Z,19.60
2018-01-13T21:36:41.114Z,18.35
2018-01-13T21:39:08.504Z,17.45
2018-01-13T21:41:35.822Z,19.73
2018-01-13T21:44:03.083Z,19.02
2018-01-13T21:46:30.919Z,18.75
2018-01-13T21:48:58.179Z,20.30
2018-01-13T21:51:25.733Z,18.45
2018-01-13T21:53:53.792Z,18.87
2018-01-13T21:56:21.093Z,18.12
2018-01-13T21:58:48.376Z,16.65
2018-01-13T22:02:39.194Z,16.20
2018-01-13T22:05:06.467Z,18.08
2018-01-13T22:07:33.739Z,17.77
2018-01-13T22:10:01.022Z,17.80
2018-01-13T22:12:28.291Z,18.55
2018-01-13T22:14:56.542Z,14.30
2018-01-13T22:17:24.923Z,15.32
2018-01-13T22:19:52.168Z,13.55
2018-01-13T22:22:19.400Z,14.45
2018-01-13T22:24:46.682Z,14.77
2018-01-13T22:27:13.945Z,12.25
2018-01-13T22:29:41.170Z,14.10
2018-01-13T22:32:08.450Z,12.63
2018-01-13T22:34:35.728Z,13.65
2018-01-13T22:37:02.990Z,15.50
2018-01-13T22:39:30.276Z,14.93
2018-01-13T22:41:57.557Z,14.07
2018-01-13T22:44:24.792Z,12.27
2018-01-13T22:49:25.761Z,13.80
2018-01-13T22:51:53.016Z,15.45
2018-01-13T22:54:20.288Z,12.93
2018-01-13T22:56:47.559Z,15.38
2018-01-13T22:59:14.840Z,13.25
2018-01-13T23:01:42.111Z,12.05
2018-01-13T23:04:10.015Z,12.25
2018-01-13T23:06:37.238Z,12.30
2018-01-13T23:09:04.524Z,13.20
2018-01-13T23:11:31.791Z,15.27
2018-01-13T23:13:59.485Z,16.70
2018-01-13T23:16:26.757Z,11.85
2018-01-13T23:18:54.086Z,12.57
2018-01-13T23:21:21.284Z,12.90
2018-01-13T23:23:48.514Z,12.43
2018-01-13T23:26:15.788Z,14.30
2018-01-13T23:28:43.029Z,14.98
2018-01-13T23:31:10.261Z,14.68
2018-01-13T23:33:37.489Z,14.32
2018-01-13T23:36:04.732Z,15.13
2018-01-13T23:38:31.962Z,14.85
2018-01-13T23:40:59.194Z,14.15
2018-01-13T23:43:26.481Z,13.48
2018-01-13T23:45:53.754Z,14.95
2018-01-13T23:48:20.978Z,14.50
2018-01-13T23:50:48.261Z,14.52
2018-01-13T23:53:15.514Z,13.52
2018-01-13T23:55:42.758Z,16.70
2018-01-13T23:58:09.986Z,15.60
